createdAt,value
2023-05-03T00:00:17.560Z,723.9231
2023-05-03T00:01:19.468Z,730.2308
2023-05-03T00:02:21.468Z,736.2308
2023-05-03T00:03:23.360Z,734.6923
2023-05-03T00:04:25.202Z,725.2308
2023-05-03T00:05:27.137Z,725.4615
2023-05-03T00:06:29.148Z,724.0000
2023-05-03T00:07:30.957Z,728.7692
2023-05-03T00:08:32.876Z,731.8461
2023-05-03T00:09:34.798Z,736.9231
2023-05-03T00:10:36.703Z,733.8461
2023-05-03T00:11:38.612Z,725.6923
2023-05-03T00:12:40.514Z,723.3077
2023-05-03T00:13:42.430Z,725.4615
2023-05-03T00:14:44.364Z,724.9231
2023-05-03T00:15:46.251Z,725.6923
2023-05-03T00:16:48.208Z,731.7692
2023-05-03T00:17:50.138Z,732.6923
2023-05-03T00:18:51.992Z,728.5385
2023-05-03T00:19:53.941Z,730.3846
2023-05-03T00:20:55.822Z,728.7692
2023-05-03T00:21:57.738Z,727.9231
2023-05-03T00:22:59.657Z,731.6154
2023-05-03T00:24:01.568Z,724.2308
2023-05-03T00:25:03.482Z,720.5385
2023-05-03T00:26:05.404Z,721.3846
2023-05-03T00:27:07.309Z,725.3846
2023-05-03T00:28:09.222Z,729.7692
2023-05-03T00:29:11.131Z,726.4615
2023-05-03T00:30:13.081Z,721.3077
2023-05-03T00:31:15.099Z,703.1539
2023-05-03T00:32:16.901Z,707.0000
2023-05-03T00:33:18.795Z,709.3077
2023-05-03T00:34:20.713Z,717.2308
2023-05-03T00:35:22.629Z,722.6923
2023-05-03T00:36:24.549Z,722.7692
2023-05-03T00:37:26.462Z,716.0000
2023-05-03T00:38:28.363Z,713.0000
2023-05-03T00:39:30.267Z,712.3077
2023-05-03T00:40:32.180Z,714.8461
2023-05-03T00:41:34.091Z,718.5385
2023-05-03T00:42:36.007Z,715.8461
2023-05-03T00:43:38.137Z,714.4615
2023-05-03T00:44:39.831Z,710.0769
2023-05-03T00:45:41.746Z,706.6154
2023-05-03T00:46:43.697Z,714.4615
2023-05-03T00:47:45.582Z,718.9231
2023-05-03T00:48:47.476Z,724.6154
2023-05-03T00:49:49.424Z,719.4615
2023-05-03T00:50:51.311Z,718.9231
2023-05-03T00:51:53.229Z,715.9231
2023-05-03T00:52:55.138Z,714.8461
2023-05-03T00:53:57.056Z,715.9231
2023-05-03T00:54:58.969Z,717.8461
2023-05-03T00:56:00.885Z,718.4615
2023-05-03T00:57:02.786Z,719.2308
2023-05-03T00:58:04.700Z,712.2308
2023-05-03T00:59:06.614Z,712.4615
2023-05-03T01:00:08.522Z,715.9231
2023-05-03T01:01:10.453Z,716.5385
2023-05-03T01:02:12.355Z,716.6923
2023-05-03T01:03:14.343Z,707.3846
2023-05-03T01:04:16.208Z,706.5385
2023-05-03T01:05:18.087Z,713.8461
2023-05-03T01:06:20.041Z,711.9231
2023-05-03T01:07:21.920Z,711.6154
2023-05-03T01:08:23.819Z,709.7692
2023-05-03T01:09:25.730Z,707.3077
2023-05-03T01:10:27.657Z,702.9231
2023-05-03T01:11:29.573Z,700.3846
2023-05-03T01:12:31.461Z,699.9231
2023-05-03T01:13:33.396Z,702.5385
2023-05-03T01:14:35.302Z,706.6154
2023-05-03T01:15:37.240Z,703.5385
2023-05-03T01:16:39.206Z,694.7692
2023-05-03T01:17:41.062Z,698.2308
2023-05-03T01:18:42.950Z,700.3846
2023-05-03T01:19:44.869Z,703.4615
2023-05-03T01:20:46.808Z,704.6154
2023-05-03T01:21:48.678Z,701.6154
2023-05-03T01:22:50.586Z,697.8461
2023-05-03T01:23:52.486Z,700.0000
2023-05-03T01:24:54.397Z,703.0769
2023-05-03T01:25:56.329Z,701.3077
2023-05-03T01:26:58.224Z,703.0769
2023-05-03T01:28:00.147Z,708.0000
2023-05-03T01:29:02.047Z,698.8461
2023-05-03T01:30:04.197Z,689.9231
2023-05-03T01:31:05.914Z,684.6154
2023-05-03T01:32:07.899Z,689.3846
2023-05-03T01:33:09.713Z,689.9231
2023-05-03T01:34:11.626Z,695.0769
2023-05-03T01:35:13.540Z,690.6154
2023-05-03T01:36:15.459Z,684.5385
2023-05-03T01:37:17.363Z,685.3846
2023-05-03T01:38:19.284Z,689.6923
2023-05-03T01:39:21.227Z,689.6923
2023-05-03T01:40:23.081Z,690.5385
2023-05-03T01:41:25.076Z,694.8461
2023-05-03T01:42:26.983Z,689.5385
2023-05-03T01:43:28.906Z,687.1539
2023-05-03T01:44:30.809Z,691.6923
2023-05-03T01:45:32.791Z,698.4615
2023-05-03T01:46:34.640Z,697.1539
2023-05-03T01:47:36.589Z,692.9231
2023-05-03T01:48:38.472Z,691.3077
2023-05-03T01:49:40.393Z,688.3846
2023-05-03T01:50:42.303Z,684.6923
2023-05-03T01:51:44.198Z,683.6923
2023-05-03T01:52:46.107Z,686.3846
2023-05-03T01:53:48.019Z,690.7692
2023-05-03T01:54:49.931Z,693.2308
2023-05-03T01:55:51.860Z,690.0769
2023-05-03T01:56:53.768Z,687.0769
2023-05-03T01:57:55.666Z,687.0000
2023-05-03T01:58:57.586Z,686.2308
2023-05-03T01:59:59.503Z,687.7692
2023-05-03T02:01:01.430Z,688.8461
2023-05-03T02:02:03.343Z,689.0769
2023-05-03T02:03:05.348Z,689.6154
2023-05-03T02:04:07.174Z,686.6923
2023-05-03T02:06:11.085Z,689.0769
2023-05-03T02:06:11.085Z,729.2000
2023-05-03T02:07:12.924Z,716.5385
2023-05-03T02:08:14.832Z,703.3077
2023-05-03T02:09:16.740Z,686.9231
2023-05-03T02:11:20.674Z,682.6923
2023-05-03T02:11:20.674Z,714.8000
2023-05-03T02:12:22.479Z,698.5385
2023-05-03T02:13:24.379Z,691.7692
2023-05-03T02:14:26.331Z,685.4615
2023-05-03T02:15:28.206Z,681.7692
2023-05-03T02:16:30.147Z,682.9231
2023-05-03T02:17:32.157Z,679.9231
2023-05-03T02:18:33.975Z,684.0000
2023-05-03T02:19:35.889Z,687.7692
2023-05-03T02:20:37.833Z,688.6154
2023-05-03T02:21:39.714Z,680.0769
2023-05-03T02:22:41.654Z,678.8461
2023-05-03T02:23:43.523Z,680.0769
2023-05-03T02:24:45.449Z,679.7692
2023-05-03T02:25:47.371Z,680.4615
2023-05-03T02:26:49.262Z,675.7692
2023-05-03T02:27:51.182Z,667.9231
2023-05-03T02:28:53.122Z,667.0000
2023-05-03T02:29:55.009Z,664.9231
2023-05-03T02:30:56.980Z,665.7692
2023-05-03T02:31:58.836Z,670.2308
2023-05-03T02:33:00.803Z,676.0769
2023-05-03T02:34:02.676Z,673.4615
2023-05-03T02:35:04.605Z,665.4615
2023-05-03T02:36:06.524Z,668.6923
2023-05-03T02:37:08.433Z,669.6154
2023-05-03T02:38:10.334Z,674.7692
2023-05-03T02:39:12.290Z,675.6154
2023-05-03T02:40:14.202Z,671.4615
2023-05-03T02:41:16.082Z,673.3077
2023-05-03T02:42:17.996Z,673.7692
2023-05-03T02:43:19.902Z,675.2308
2023-05-03T02:44:21.822Z,676.4615
2023-05-03T02:45:23.730Z,676.4615
2023-05-03T02:46:25.706Z,674.3077
2023-05-03T02:47:27.566Z,670.1539
2023-05-03T02:48:29.462Z,672.5385
2023-05-03T02:49:31.388Z,669.8461
2023-05-03T02:50:33.292Z,667.7692
2023-05-03T02:51:35.210Z,672.2308
2023-05-03T02:52:37.146Z,671.4615
2023-05-03T02:53:39.045Z,669.7692
2023-05-03T02:54:40.962Z,665.6923
2023-05-03T02:55:42.878Z,665.7692
2023-05-03T02:56:44.771Z,666.2308
2023-05-03T02:57:46.686Z,670.3077
2023-05-03T02:58:48.624Z,674.6154
2023-05-03T02:59:50.511Z,673.3077
2023-05-03T03:00:52.434Z,662.8461
2023-05-03T03:01:54.366Z,660.5385
2023-05-03T03:02:56.371Z,663.5385
2023-05-03T03:03:58.292Z,665.2308
2023-05-03T03:05:00.145Z,669.9231
2023-05-03T03:06:02.129Z,668.7692
2023-05-03T03:07:03.926Z,667.0769
2023-05-03T03:08:05.832Z,664.5385
2023-05-03T03:09:07.780Z,663.2308
2023-05-03T03:10:09.668Z,664.2308
2023-05-03T03:11:11.603Z,671.1539
2023-05-03T03:12:13.503Z,669.7692
2023-05-03T03:13:15.415Z,667.1539
2023-05-03T03:14:17.327Z,661.0769
2023-05-03T03:15:19.249Z,660.3846
2023-05-03T03:16:21.184Z,659.6923
2023-05-03T03:17:23.142Z,660.7692
2023-05-03T03:18:25.026Z,664.3846
2023-05-03T03:19:26.921Z,660.5385
2023-05-03T03:20:28.862Z,657.6154
2023-05-03T03:21:30.765Z,661.1539
2023-05-03T03:22:32.673Z,660.6923
2023-05-03T03:23:34.624Z,660.6923
2023-05-03T03:24:36.520Z,660.6923
2023-05-03T03:25:38.436Z,661.7692
2023-05-03T03:26:40.375Z,656.5385
2023-05-03T03:27:42.289Z,651.6154
2023-05-03T03:28:44.209Z,647.2308
2023-05-03T03:29:46.129Z,648.6154
2023-05-03T03:30:48.036Z,650.5385
2023-05-03T03:31:49.999Z,649.3077
2023-05-03T03:32:51.909Z,652.3077
2023-05-03T03:33:53.795Z,651.2308
2023-05-03T03:34:55.717Z,653.2308
2023-05-03T03:35:57.650Z,651.3077
2023-05-03T03:36:59.546Z,656.2308
2023-05-03T03:38:01.457Z,658.0769
2023-05-03T03:39:03.364Z,656.7692
2023-05-03T03:40:05.377Z,653.6923
2023-05-03T03:41:07.208Z,653.4615
2023-05-03T03:42:09.148Z,650.7692
2023-05-03T03:43:11.049Z,654.6154
2023-05-03T03:44:12.967Z,658.0769
2023-05-03T03:45:14.892Z,659.7692
2023-05-03T03:46:16.856Z,658.9231
2023-05-03T03:47:18.782Z,655.9231
2023-05-03T03:48:20.671Z,652.3077
2023-05-03T03:49:22.554Z,652.3846
2023-05-03T03:50:24.462Z,659.6154
2023-05-03T03:51:26.376Z,660.2308
2023-05-03T03:52:28.294Z,654.6154
2023-05-03T03:53:30.205Z,648.6923
2023-05-03T03:54:32.162Z,648.2308
2023-05-03T03:55:34.076Z,647.3077
2023-05-03T03:56:35.957Z,650.0769
2023-05-03T03:57:37.889Z,654.0000
2023-05-03T03:58:39.804Z,653.3846
2023-05-03T03:59:41.702Z,647.0769
2023-05-03T04:00:43.682Z,647.8461
2023-05-03T04:01:45.539Z,648.7692
2023-05-03T04:02:47.702Z,651.4615
2023-05-03T04:03:49.416Z,651.5385
2023-05-03T04:04:51.281Z,650.0000
2023-05-03T04:05:53.203Z,639.0000
2023-05-03T04:06:55.141Z,634.1539
2023-05-03T04:07:57.029Z,634.5385
2023-05-03T04:08:58.941Z,638.1539
2023-05-03T04:10:01.107Z,646.0769
2023-05-03T04:11:02.779Z,649.4615
2023-05-03T04:12:04.709Z,644.2308
2023-05-03T04:13:06.645Z,635.9231
2023-05-03T04:14:08.529Z,636.0000
2023-05-03T04:15:10.447Z,639.6923
2023-05-03T04:16:12.358Z,646.6154
2023-05-03T04:17:14.525Z,652.9231
2023-05-03T04:18:16.220Z,651.7692
2023-05-03T04:19:18.102Z,644.8461
2023-05-03T04:20:20.011Z,640.8461
2023-05-03T04:21:22.081Z,637.3077
2023-05-03T04:22:23.835Z,640.2308
2023-05-03T04:23:25.770Z,647.2308
2023-05-03T04:24:27.707Z,648.7692
2023-05-03T04:25:29.588Z,644.3846
2023-05-03T04:26:32.335Z,639.9231
2023-05-03T04:27:33.426Z,638.7692
2023-05-03T04:28:35.334Z,642.3077
2023-05-03T04:29:37.237Z,637.3077
2023-05-03T04:30:39.195Z,648.8461
2023-05-03T04:31:41.075Z,646.2308
2023-05-03T04:32:43.074Z,640.9231
2023-05-03T04:33:44.911Z,639.0000
2023-05-03T04:34:49.083Z,638.2308
2023-05-03T04:35:48.742Z,641.4615
2023-05-03T04:36:50.700Z,645.3846
2023-05-03T04:37:52.575Z,640.3077
2023-05-03T04:38:54.484Z,635.3077
2023-05-03T04:39:56.581Z,636.3846
2023-05-03T04:40:58.321Z,638.3077
2023-05-03T04:42:00.236Z,640.4615
2023-05-03T04:43:02.181Z,642.6154
2023-05-03T04:44:04.062Z,637.6923
2023-05-03T04:45:05.969Z,637.0769
2023-05-03T04:46:07.922Z,636.0769
2023-05-03T04:47:09.803Z,639.6154
2023-05-03T04:48:11.778Z,640.2308
2023-05-03T04:49:13.660Z,639.5385
2023-05-03T04:50:15.568Z,639.3077
2023-05-03T04:51:17.469Z,636.3846
2023-05-03T04:52:19.382Z,633.4615
2023-05-03T04:53:21.299Z,632.6154
2023-05-03T04:54:23.217Z,636.6154
2023-05-03T04:55:25.175Z,636.6154
2023-05-03T04:56:27.053Z,638.3077
2023-05-03T04:57:28.965Z,638.6923
2023-05-03T04:58:30.880Z,629.0000
2023-05-03T04:59:32.793Z,624.7692
2023-05-03T05:00:34.708Z,624.9231
2023-05-03T05:01:36.684Z,625.3077
2023-05-03T05:02:38.611Z,625.9231
2023-05-03T05:03:40.545Z,627.7692
2023-05-03T05:04:42.358Z,631.8461
2023-05-03T05:05:44.285Z,628.4615
2023-05-03T05:06:46.281Z,627.2308
2023-05-03T05:07:48.113Z,629.7692
2023-05-03T05:08:50.024Z,636.9231
2023-05-03T05:09:51.936Z,639.3846
2023-05-03T05:10:53.897Z,637.3077
2023-05-03T05:11:57.207Z,628.8461
2023-05-03T05:12:57.708Z,624.0000
2023-05-03T05:13:59.622Z,622.7692
2023-05-03T05:15:01.542Z,628.6923
2023-05-03T05:16:03.459Z,631.2308
2023-05-03T05:17:05.372Z,629.3077
2023-05-03T05:18:07.360Z,623.9231
2023-05-03T05:19:09.183Z,622.4615
2023-05-03T05:20:11.123Z,624.9231
2023-05-03T05:21:13.011Z,632.0769
2023-05-03T05:22:14.927Z,632.0769
2023-05-03T05:23:16.850Z,630.0769
2023-05-03T05:24:18.792Z,626.0000
2023-05-03T05:25:20.668Z,624.6154
2023-05-03T05:26:22.581Z,627.4615
2023-05-03T05:27:25.331Z,628.6923
2023-05-03T05:28:26.429Z,626.6923
2023-05-03T05:29:28.329Z,628.8461
2023-05-03T05:30:30.279Z,625.4615
2023-05-03T05:31:32.177Z,620.8461
2023-05-03T05:32:34.067Z,622.0000
2023-05-03T05:33:35.975Z,615.4615
2023-05-03T05:34:45.454Z,624.3077
2023-05-03T05:35:39.815Z,634.5000
2023-05-03T05:36:41.757Z,636.5385
2023-05-03T05:37:43.666Z,635.3077
2023-05-03T05:38:45.549Z,630.5385
2023-05-03T05:39:47.482Z,625.3846
2023-05-03T05:40:49.391Z,627.0000
2023-05-03T05:41:51.336Z,629.3077
2023-05-03T05:42:53.213Z,630.9231
2023-05-03T05:43:55.132Z,624.1539
2023-05-03T05:44:57.057Z,619.4615
2023-05-03T05:45:59.048Z,620.3846
2023-05-03T05:47:01.002Z,621.9231
2023-05-03T05:48:02.984Z,624.3077
2023-05-03T05:49:04.780Z,625.3846
2023-05-03T05:50:16.773Z,629.3846
2023-05-03T05:51:08.603Z,621.4167
2023-05-03T05:52:10.516Z,618.5385
2023-05-03T05:53:12.425Z,618.6154
2023-05-03T05:54:14.369Z,621.0000
2023-05-03T05:55:16.250Z,622.6154
2023-05-03T05:56:18.169Z,620.7692
2023-05-03T05:57:20.088Z,613.2308
2023-05-03T05:58:21.996Z,612.5385
2023-05-03T05:59:23.913Z,614.7692
2023-05-03T06:00:25.850Z,617.6923
2023-05-03T06:01:27.784Z,625.4615
2023-05-03T06:02:29.817Z,624.8461
2023-05-03T06:03:31.621Z,623.9231
2023-05-03T06:04:33.496Z,612.8461
2023-05-03T06:05:35.474Z,611.0769
2023-05-03T06:06:37.418Z,614.0769
2023-05-03T06:07:39.242Z,618.7692
2023-05-03T06:08:41.159Z,621.0000
2023-05-03T06:09:43.126Z,616.5385
2023-05-03T06:10:44.986Z,620.6923
2023-05-03T06:11:46.902Z,611.6154
2023-05-03T06:12:48.832Z,609.7692
2023-05-03T06:13:50.725Z,617.0769
2023-05-03T06:15:01.894Z,622.5385
2023-05-03T06:15:54.543Z,622.4167
2023-05-03T06:16:56.572Z,616.5385
2023-05-03T06:17:58.418Z,619.9231
2023-05-03T06:19:00.316Z,615.4615
2023-05-03T06:20:02.438Z,613.0769
2023-05-03T06:21:04.128Z,616.9231
2023-05-03T06:22:06.040Z,620.3846
2023-05-03T06:23:07.957Z,618.1539
2023-05-03T06:24:09.864Z,613.6923
2023-05-03T06:25:11.831Z,612.9231
2023-05-03T06:26:13.719Z,615.6923
2023-05-03T06:27:15.618Z,617.1539
2023-05-03T06:28:17.532Z,616.6923
2023-05-03T06:29:19.438Z,613.9231
2023-05-03T06:30:21.359Z,605.8461
2023-05-03T06:31:23.326Z,606.6923
2023-05-03T06:32:25.216Z,609.3846
2023-05-03T06:33:27.111Z,609.3077
2023-05-03T06:34:29.019Z,614.1539
2023-05-03T06:35:30.948Z,616.0000
2023-05-03T06:36:32.848Z,613.0769
2023-05-03T06:37:34.784Z,602.8461
2023-05-03T06:38:36.679Z,609.7692
2023-05-03T06:39:38.591Z,609.6154
2023-05-03T06:40:40.502Z,612.3077
2023-05-03T06:41:42.421Z,613.5385
2023-05-03T06:42:44.338Z,612.7692
2023-05-03T06:43:46.275Z,612.6154
2023-05-03T06:44:48.158Z,611.2308
2023-05-03T06:45:50.073Z,608.0000
2023-05-03T06:46:52.037Z,615.4615
2023-05-03T06:47:53.941Z,620.0769
2023-05-03T06:48:55.859Z,609.0769
2023-05-03T06:49:57.748Z,603.3846
2023-05-03T06:50:59.636Z,600.6923
2023-05-03T06:52:01.533Z,601.6923
2023-05-03T06:53:03.452Z,604.5385
2023-05-03T06:54:05.380Z,608.0769
2023-05-03T06:55:07.299Z,614.2308
2023-05-03T06:56:09.238Z,614.5385
2023-05-03T06:57:11.115Z,613.4615
2023-05-03T06:58:13.023Z,612.2308
2023-05-03T06:59:14.955Z,610.4615
2023-05-03T07:00:16.855Z,622.0769
2023-05-03T07:01:18.835Z,615.3846
2023-05-03T07:02:20.719Z,610.4615
2023-05-03T07:03:22.660Z,609.3077
2023-05-03T07:04:24.538Z,611.1539
2023-05-03T07:05:26.451Z,613.0000
2023-05-03T07:06:28.388Z,619.3846
2023-05-03T07:07:30.284Z,616.4615
2023-05-03T07:08:32.223Z,611.7692
2023-05-03T07:09:42.795Z,604.8461
2023-05-03T07:10:36.026Z,598.5833
2023-05-03T07:11:37.942Z,602.6923
2023-05-03T07:12:39.863Z,600.3077
2023-05-03T07:13:41.790Z,600.7692
2023-05-03T07:14:43.744Z,605.8461
2023-05-03T07:15:45.667Z,603.3077
2023-05-03T07:16:47.534Z,603.6923
2023-05-03T07:17:49.440Z,604.8461
2023-05-03T07:18:51.329Z,605.6154
2023-05-03T07:19:53.317Z,603.3077
2023-05-03T07:20:55.183Z,601.2308
2023-05-03T07:21:57.116Z,599.6154
2023-05-03T07:22:58.997Z,596.3077
2023-05-03T07:24:00.911Z,595.8461
2023-05-03T07:25:02.842Z,596.6154
2023-05-03T07:26:04.762Z,609.1539
2023-05-03T07:27:06.703Z,609.6923
2023-05-03T07:28:08.604Z,597.8461
2023-05-03T07:29:10.506Z,597.3846
2023-05-03T07:30:12.418Z,597.9231
2023-05-03T07:31:14.349Z,595.0000
2023-05-03T07:32:16.262Z,596.3077
2023-05-03T07:33:18.195Z,601.8461
2023-05-03T07:34:20.115Z,598.6923
2023-05-03T07:35:21.986Z,592.7692
2023-05-03T07:36:23.904Z,590.4615
2023-05-03T07:37:25.857Z,604.4615
2023-05-03T07:38:27.744Z,606.6923
2023-05-03T07:39:29.648Z,607.9231
2023-05-03T07:40:31.570Z,600.4615
2023-05-03T07:41:33.480Z,593.9231
2023-05-03T07:42:35.423Z,590.7692
2023-05-03T07:43:37.317Z,591.6923
2023-05-03T07:44:39.244Z,593.6154
2023-05-03T07:45:41.269Z,593.4615
2023-05-03T07:46:43.070Z,599.5385
2023-05-03T07:47:45.026Z,596.4615
2023-05-03T07:48:46.933Z,592.2308
2023-05-03T07:49:48.800Z,593.8461
2023-05-03T07:50:50.735Z,595.0000
2023-05-03T07:51:52.647Z,600.7692
2023-05-03T07:52:54.567Z,603.3077
2023-05-03T07:53:56.474Z,607.1539
2023-05-03T07:54:58.423Z,605.3077
2023-05-03T07:56:00.331Z,601.3846
2023-05-03T07:57:02.238Z,602.2308
2023-05-03T07:58:04.143Z,599.7692
2023-05-03T07:59:09.857Z,599.8461
2023-05-03T08:00:07.979Z,595.5385
2023-05-03T08:01:09.915Z,592.4615
2023-05-03T08:02:11.898Z,593.3077
2023-05-03T08:03:14.128Z,593.7692
2023-05-03T08:04:15.872Z,595.3077
2023-05-03T08:05:17.979Z,598.0769
2023-05-03T08:06:19.529Z,597.0769
2023-05-03T08:07:21.407Z,589.6154
2023-05-03T08:08:23.345Z,586.5385
2023-05-03T08:09:25.205Z,589.4615
2023-05-03T08:10:27.132Z,589.6923
2023-05-03T08:11:29.206Z,592.4615
2023-05-03T08:12:30.953Z,592.8461
2023-05-03T08:13:32.924Z,592.1539
2023-05-03T08:14:34.796Z,589.3846
2023-05-03T08:15:36.737Z,589.6154
2023-05-03T08:16:38.641Z,593.5385
2023-05-03T08:17:40.544Z,597.3077
2023-05-03T08:18:42.432Z,599.3846
2023-05-03T08:19:44.355Z,596.1539
2023-05-03T08:20:46.259Z,593.0769
2023-05-03T08:21:48.173Z,591.7692
2023-05-03T08:22:50.123Z,592.3846
2023-05-03T08:23:52.024Z,597.4615
2023-05-03T08:24:53.918Z,595.8461
2023-05-03T08:25:55.836Z,596.0769
2023-05-03T08:26:57.746Z,591.9231
2023-05-03T08:27:59.676Z,585.4615
2023-05-03T08:29:01.668Z,586.9231
2023-05-03T08:30:03.722Z,587.4615
2023-05-03T08:31:05.511Z,588.6154
2023-05-03T08:32:07.335Z,590.0000
2023-05-03T08:33:09.270Z,588.4615
2023-05-03T08:34:11.204Z,586.9231
2023-05-03T08:35:13.081Z,587.5385
2023-05-03T08:36:14.999Z,587.7692
2023-05-03T08:37:16.902Z,588.5385
2023-05-03T08:38:18.817Z,589.0000
2023-05-03T08:39:20.748Z,587.9231
2023-05-03T08:40:22.687Z,584.1539
2023-05-03T08:41:24.564Z,579.4615
2023-05-03T08:42:26.471Z,581.6923
2023-05-03T08:43:28.399Z,582.1539
2023-05-03T08:44:30.307Z,589.0000
2023-05-03T08:45:32.220Z,590.4615
2023-05-03T08:46:34.168Z,580.2308
2023-05-03T08:47:36.161Z,579.8461
2023-05-03T08:48:37.968Z,583.5385
2023-05-03T08:49:39.890Z,585.3846
2023-05-03T08:50:41.798Z,573.6923
2023-05-03T08:51:43.709Z,541.7692
2023-05-03T08:52:45.710Z,519.3077
2023-05-03T08:53:47.540Z,509.1538
2023-05-03T08:54:49.451Z,506.4615
2023-05-03T08:55:51.361Z,504.5385
2023-05-03T08:56:53.276Z,499.9231
2023-05-03T08:57:55.191Z,496.5385
2023-05-03T08:58:57.311Z,497.0769
2023-05-03T08:59:59.034Z,497.5385
2023-05-03T09:01:00.933Z,499.6154
2023-05-03T09:02:02.884Z,497.6923
2023-05-03T09:03:04.803Z,496.0000
2023-05-03T09:04:06.824Z,498.3846
2023-05-03T09:05:08.612Z,500.9231
2023-05-03T09:06:10.502Z,498.0000
2023-05-03T09:07:12.405Z,498.0769
2023-05-03T09:08:14.319Z,494.6154
2023-05-03T09:09:16.260Z,493.3846
2023-05-03T09:10:18.187Z,493.6923
2023-05-03T09:11:20.191Z,492.4615
2023-05-03T09:12:22.002Z,493.3077
2023-05-03T09:13:23.915Z,492.5385
2023-05-03T09:14:25.833Z,487.6923
2023-05-03T09:15:27.747Z,487.8462
2023-05-03T09:16:29.779Z,488.7692
2023-05-03T09:17:31.602Z,487.2308
2023-05-03T09:18:33.489Z,485.3846
2023-05-03T09:19:35.399Z,486.1538
2023-05-03T09:20:37.376Z,486.9231
2023-05-03T09:21:39.224Z,486.2308
2023-05-03T09:22:41.187Z,489.9231
2023-05-03T09:23:43.042Z,526.5385
2023-05-03T09:24:44.958Z,722.7692
2023-05-03T09:25:46.887Z,832.5385
2023-05-03T09:26:48.788Z,852.3077
2023-05-03T09:27:50.712Z,861.6154
2023-05-03T09:28:52.640Z,868.1539
2023-05-03T09:29:54.557Z,877.5385
2023-05-03T09:30:56.459Z,885.5385
2023-05-03T09:31:58.440Z,885.0000
2023-05-03T09:33:00.333Z,886.3077
2023-05-03T09:34:02.229Z,884.6154
2023-05-03T09:35:04.288Z,884.6154
2023-05-03T09:36:06.054Z,883.0000
2023-05-03T09:37:07.957Z,886.3846
2023-05-03T09:38:09.880Z,885.3077
2023-05-03T09:39:11.769Z,824.1539
2023-05-03T09:40:13.758Z,618.6923
2023-05-03T09:41:15.590Z,544.4615
2023-05-03T09:42:17.597Z,526.8461
2023-05-03T09:43:19.689Z,513.6154
2023-05-03T09:44:21.356Z,507.4615
2023-05-03T09:45:23.274Z,504.0000
2023-05-03T09:46:25.377Z,503.6923
2023-05-03T09:47:29.219Z,500.1538
2023-05-03T09:48:28.994Z,498.6923
2023-05-03T09:49:30.987Z,496.1538
2023-05-03T09:50:32.899Z,491.4615
2023-05-03T09:51:34.802Z,492.4615
2023-05-03T09:52:36.718Z,488.1538
2023-05-03T09:53:39.813Z,486.0769
2023-05-03T09:54:40.542Z,668.1539
2023-05-03T09:55:42.466Z,1058.9231
2023-05-03T09:56:44.396Z,1176.0769
2023-05-03T09:57:46.338Z,1194.0000
2023-05-03T09:58:48.223Z,1212.0769
2023-05-03T09:59:50.138Z,1228.9231
2023-05-03T10:00:52.478Z,1247.3846
2023-05-03T10:01:53.990Z,1252.4615
2023-05-03T10:02:55.926Z,1259.7693
2023-05-03T10:03:57.817Z,1260.4615
2023-05-03T10:04:59.715Z,1260.1538
2023-05-03T10:06:01.669Z,1268.3846
2023-05-03T10:07:03.896Z,1272.0000
2023-05-03T10:08:05.482Z,1267.0769
2023-05-03T10:09:07.392Z,1265.6923
2023-05-03T10:10:09.306Z,1106.1538
2023-05-03T10:11:11.241Z,700.0000
2023-05-03T10:12:13.134Z,555.4615
2023-05-03T10:13:15.070Z,518.5385
2023-05-03T10:14:16.963Z,497.9231
2023-05-03T10:15:18.868Z,493.5385
2023-05-03T10:16:20.857Z,492.7692
2023-05-03T10:17:29.240Z,489.6923
2023-05-03T10:18:24.664Z,488.5000
2023-05-03T10:19:26.553Z,488.1538
2023-05-03T10:20:28.437Z,488.7692
2023-05-03T10:21:30.346Z,488.5385
2023-05-03T10:22:32.279Z,487.6154
2023-05-03T10:23:34.184Z,487.6154
2023-05-03T10:24:36.088Z,486.3846
2023-05-03T10:25:38.328Z,496.1538
2023-05-03T10:26:39.917Z,873.9231
2023-05-03T10:27:41.833Z,1427.6923
2023-05-03T10:28:43.754Z,1578.1538
2023-05-03T10:29:45.672Z,1624.4615
2023-05-03T10:30:47.586Z,1633.1538
2023-05-03T10:31:49.536Z,1643.0769
2023-05-03T10:32:51.489Z,1654.0769
2023-05-03T10:33:53.324Z,1658.0769
2023-05-03T10:34:55.237Z,1653.2307
2023-05-03T10:35:57.157Z,1651.9231
2023-05-03T10:36:59.075Z,1649.7693
2023-05-03T10:38:00.998Z,1650.4615
2023-05-03T10:39:02.928Z,1654.5385
2023-05-03T10:40:04.829Z,1654.2307
2023-05-03T10:41:06.791Z,1233.8462
2023-05-03T10:42:08.656Z,712.3077
2023-05-03T10:43:10.570Z,559.7692
2023-05-03T10:44:12.503Z,516.3077
2023-05-03T10:45:14.382Z,499.6923
2023-05-03T10:46:16.316Z,486.2308
2023-05-03T10:47:18.224Z,479.6923
2023-05-03T10:48:20.176Z,478.8462
2023-05-03T10:49:22.063Z,477.6923
2023-05-03T10:50:23.973Z,476.7692
2023-05-03T10:51:25.867Z,469.1538
2023-05-03T10:52:27.778Z,469.7692
2023-05-03T10:53:29.692Z,466.3846
2023-05-03T10:54:31.615Z,463.5385
2023-05-03T10:55:33.526Z,468.4615
2023-05-03T10:56:35.497Z,1160.9231
2023-05-03T10:57:38.837Z,1741.1538
2023-05-03T10:58:39.268Z,1889.3846
2023-05-03T10:59:41.188Z,1922.2307
2023-05-03T11:00:43.101Z,1942.0769
2023-05-03T11:01:45.050Z,1952.5385
2023-05-03T11:02:47.001Z,1956.2307
2023-05-03T11:03:48.869Z,1959.3846
2023-05-03T11:04:50.833Z,1961.3846
2023-05-03T11:05:52.699Z,1959.3077
2023-05-03T11:06:54.673Z,1965.0000
2023-05-03T11:07:56.532Z,1970.9231
2023-05-03T11:08:58.479Z,1972.3077
2023-05-03T11:10:00.376Z,1976.7693
2023-05-03T11:11:02.281Z,1885.5385
2023-05-03T11:12:04.205Z,1072.3077
2023-05-03T11:13:06.111Z,644.4615
2023-05-03T11:14:08.029Z,533.8461
2023-05-03T11:15:09.972Z,498.9231
2023-05-03T11:16:11.908Z,479.3846
2023-05-03T11:17:13.807Z,471.3077
2023-05-03T11:18:15.693Z,470.8462
2023-05-03T11:19:17.603Z,470.7692
2023-05-03T11:20:19.509Z,473.1538
2023-05-03T11:21:21.744Z,473.3333
2023-05-03T11:22:23.349Z,475.0769
2023-05-03T11:23:25.269Z,474.3846
2023-05-03T11:24:27.179Z,472.5385
2023-05-03T11:25:29.084Z,475.6154
2023-05-03T11:26:31.004Z,479.6923
2023-05-03T11:27:32.908Z,540.6923
2023-05-03T11:28:34.865Z,1582.4615
2023-05-03T11:29:36.747Z,2137.0000
2023-05-03T11:30:38.645Z,2286.6924
2023-05-03T11:31:40.634Z,2321.7693
2023-05-03T11:32:42.550Z,2342.3845
2023-05-03T11:33:46.515Z,2354.0769
2023-05-03T11:34:46.360Z,2358.0000
2023-05-03T11:35:48.250Z,2358.1538
2023-05-03T11:36:50.164Z,2364.9231
2023-05-03T11:37:52.069Z,2365.9231
2023-05-03T11:38:54.003Z,2369.7693
2023-05-03T11:39:55.905Z,2369.5386
2023-05-03T11:40:57.815Z,2371.2307
2023-05-03T11:41:59.731Z,2372.1538
2023-05-03T11:43:01.624Z,2349.1538
2023-05-03T11:44:14.933Z,2340.1538
2023-05-03T11:45:05.651Z,2330.5833
2023-05-03T11:46:07.481Z,2327.5386
2023-05-03T11:47:09.485Z,2335.2307
2023-05-03T11:48:11.238Z,2337.0000
2023-05-03T11:49:13.197Z,2331.5386
2023-05-03T11:50:15.089Z,2329.4614
2023-05-03T11:51:16.985Z,2314.0769
2023-05-03T11:52:18.886Z,2208.3076
2023-05-03T11:53:20.808Z,1194.7693
2023-05-03T11:54:26.990Z,691.0000
2023-05-03T11:55:24.644Z,544.5833
2023-05-03T11:56:26.557Z,505.9231
2023-05-03T11:57:28.485Z,493.5385
2023-05-03T11:58:30.384Z,483.7692
2023-05-03T11:59:32.291Z,480.2308
2023-05-03T12:00:34.205Z,480.0769
2023-05-03T12:01:36.114Z,475.4615
2023-05-03T12:02:38.211Z,471.0000
2023-05-03T12:03:40.091Z,467.3846
2023-05-03T12:04:42.770Z,466.8462